Time;durP1;ratioP1;P1;durP2;ratioP2;P2;SDS_P1;SDS_P2;PMS_P1;PMS_P2;Temp;Humidity;BMP_temperature;BMP_pressure;BME280_temperature;BME280_humidity;BME280_pressure;Samples;Min_cycle;Max_cycle;Signal;HPM_P1;HPM_P2
2022/01/04 00:18:00;;;;;;;;;;;;;;;;;;;;;
2022/01/04 00:21:06;;;;;;;1.40;0.50;;;10.40;78.70;;;;;;4964692;29;20122;-79
2022/01/04 00:28:09;;;;;;;1.65;0.50;;;10.50;78.80;;;;;;4978176;28;20048;-80
2022/01/04 00:30:46;;;;;;;1.00;0.60;;;10.40;78.80;;;;;;4914880;29;20039;-80
2022/01/04 00:34:01;;;;;;;0.75;0.50;;;10.50;77.90;;;;;;4936350;29;20114;-80
2022/01/04 00:44:50;;;;;;;1.73;0.50;;;10.60;77.30;;;;;;4930340;29;20500;-79
2022/01/04 00:54:50;;;;;;;0.40;0.30;;;10.60;77.00;;;;;;4980275;28;20054;-80
2022/01/04 00:58:03;;;;;;;;;;;;;;;;;;;;;
2022/01/04 01:01:09;;;;;;;0.75;0.40;;;10.60;76.90;;;;;;4980306;28;20086;-81
2022/01/04 01:04:30;;;;;;;;;;;;;;;;;;;;;
2022/01/04 01:07:38;;;;;;;;;;;;;;;;;;;;;
2022/01/04 01:25:20;;;;;;;1.27;0.43;;;10.70;74.30;;;;;;4945470;29;20055;-78
2022/01/04 01:28:24;;;;;;;;;;;;;;;;;;;;;
2022/01/04 01:34:48;;;;;;;;;;;;;;;;;;;;;
2022/01/04 01:37:58;;;;;;;2.10;0.50;;;10.80;73.30;;;;;;4966745;28;20103;-79
2022/01/04 01:44:14;;;;;;;0.65;0.40;;;10.80;73.40;;;;;;4957886;29;20181;-80
2022/01/04 01:46:56;;;;;;;0.85;0.50;;;10.80;73.10;;;;;;5059967;28;20113;-80
2022/01/04 01:49:42;;;;;;;;;;;10.90;72.90;;;;;;5044909;28;20140;-80
2022/01/04 01:59:37;;;;;;;;;;;;;;;;;;;;;
2022/01/04 02:03:01;;;;;;;1.17;0.45;;;11.10;71.80;;;;;;5044506;28;20112;-82
2022/01/04 02:17:18;;;;;;;;;;;;;;;;;;;;;
2022/01/04 02:32:42;;;;;;;;;;;;;;;;;;;;;
2022/01/04 02:35:59;;;;;;;5.90;0.50;;;11.00;72.20;;;;;;5062629;28;20118;-80
2022/01/04 02:49:23;;;;;;;0.60;0.43;;;11.00;72.50;;;;;;4929634;29;20048;-79
2022/01/04 02:53:00;;;;;;;1.40;0.43;;;11.00;72.90;;;;;;4996296;28;20145;-80
2022/01/04 02:55:25;;;;;;;0.52;0.35;;;11.00;73.30;;;;;;4957754;28;20064;-80
2022/01/04 02:57:51;;;;;;;0.50;0.50;;;11.00;73.60;;;;;;5004375;28;20015;-82
2022/01/04 03:00:28;;;;;;;0.50;0.50;;;10.90;73.80;;;;;;5005536;28;20038;-80
2022/01/04 03:02:54;;;;;;;0.77;0.52;;;10.90;74.10;;;;;;4988790;28;20486;-81
2022/01/04 03:05:21;;;;;;;0.55;0.43;;;10.80;74.30;;;;;;4987563;28;20035;-81
2022/01/04 03:07:46;;;;;;;1.42;0.65;;;10.80;74.40;;;;;;5018067;28;20066;-79
2022/01/04 03:10:12;;;;;;;0.63;0.50;;;10.80;74.50;;;;;;5012297;28;20535;-79
2022/01/04 03:12:42;;;;;;;1.20;0.57;;;10.80;74.60;;;;;;5021090;28;20026;-81
2022/01/04 03:15:08;;;;;;;0.80;0.45;;;10.70;74.70;;;;;;5021504;28;20018;-81
2022/01/04 03:17:34;;;;;;;0.30;0.30;;;10.70;74.90;;;;;;5021374;28;20025;-82
2022/01/04 03:20:00;;;;;;;1.65;0.70;;;10.80;75.20;;;;;;5004879;28;20088;-81
2022/01/04 03:22:26;;;;;;;0.52;0.50;;;10.70;75.50;;;;;;5020358;28;20061;-81
2022/01/04 03:24:52;;;;;;;0.30;0.30;;;10.80;75.60;;;;;;5023061;28;20168;-80
2022/01/04 03:27:18;;;;;;;0.98;0.40;;;10.80;75.60;;;;;;5003344;28;20038;-80
2022/01/04 03:29:44;;;;;;;0.47;0.40;;;10.80;75.70;;;;;;5021901;28;20032;-80
2022/01/04 03:32:10;;;;;;;0.50;0.38;;;10.80;75.90;;;;;;5021797;28;20414;-81
2022/01/04 03:34:35;;;;;;;0.35;0.30;;;10.80;76.40;;;;;;5022068;28;20406;-80
2022/01/04 03:37:01;;;;;;;0.98;0.65;;;10.80;76.30;;;;;;5020593;28;20018;-80
2022/01/04 03:39:27;;;;;;;0.22;0.22;;;10.80;77.10;;;;;;5023710;28;20471;-79
2022/01/04 03:41:53;;;;;;;0.85;0.45;;;10.90;76.90;;;;;;5023648;28;20101;-80
2022/01/04 03:44:20;;;;;;;2.40;0.52;;;10.90;77.10;;;;;;5023371;28;20037;-80
2022/01/04 03:46:54;;;;;;;0.93;0.30;;;10.90;77.30;;;;;;5004779;28;20277;-80
2022/01/04 03:49:20;;;;;;;1.48;0.40;;;10.90;77.40;;;;;;5021891;28;20026;-80
2022/01/04 03:51:46;;;;;;;0.77;0.30;;;10.90;77.10;;;;;;5023373;28;20427;-80
2022/01/04 03:54:13;;;;;;;0.70;0.30;;;10.90;77.30;;;;;;5005373;28;20018;-81
2022/01/04 03:56:39;;;;;;;0.68;0.30;;;10.90;77.80;;;;;;5023117;28;20029;-81
2022/01/04 03:59:05;;;;;;;0.30;0.20;;;10.80;78.20;;;;;;5022994;28;20034;-80
2022/01/04 04:01:31;;;;;;;1.63;0.60;;;10.80;78.80;;;;;;5005353;28;20030;-80
2022/01/04 04:03:56;;;;;;;0.40;0.20;;;10.80;79.20;;;;;;5023500;28;20051;-79
2022/01/04 04:06:22;;;;;;;2.17;0.40;;;10.70;79.20;;;;;;5004226;28;20056;-78
2022/01/04 04:08:48;;;;;;;0.82;0.47;;;10.80;79.20;;;;;;5023860;28;20022;-79
2022/01/04 04:11:14;;;;;;;1.52;0.50;;;10.80;79.10;;;;;;5007592;28;20072;-79
2022/01/04 04:13:40;;;;;;;0.30;0.30;;;10.70;79.20;;;;;;5024159;28;20117;-80
2022/01/04 04:16:05;;;;;;;0.30;0.30;;;10.70;79.20;;;;;;5025032;28;20021;-80
2022/01/04 04:18:31;;;;;;;0.70;0.50;;;10.80;79.10;;;;;;5003605;28;20056;-78
2022/01/04 04:20:57;;;;;;;1.17;0.30;;;10.70;79.20;;;;;;5004186;28;20506;-80
2022/01/04 04:23:23;;;;;;;0.55;0.30;;;10.80;79.50;;;;;;5023674;28;20061;-80
2022/01/04 04:25:48;;;;;;;1.38;0.40;;;10.70;79.70;;;;;;5024080;28;20080;-80
2022/01/04 04:28:14;;;;;;;0.35;0.28;;;10.70;80.10;;;;;;5022728;28;20041;-80
2022/01/04 04:30:40;;;;;;;0.63;0.35;;;10.70;80.80;;;;;;5024270;28;20022;-81
2022/01/04 04:33:06;;;;;;;0.82;0.50;;;10.60;81.50;;;;;;5007176;28;20033;-80
2022/01/04 04:35:32;;;;;;;1.10;0.43;;;10.60;82.10;;;;;;5025648;28;20025;-79
2022/01/04 04:37:59;;;;;;;2.17;1.00;;;10.60;82.80;;;;;;5026216;28;20026;-80
2022/01/04 04:40:25;;;;;;;0.28;0.20;;;10.40;83.30;;;;;;5026469;28;20030;-80
2022/01/04 04:42:51;;;;;;;0.45;0.40;;;10.40;83.80;;;;;;5027089;28;20096;-80
2022/01/04 04:45:17;;;;;;;2.17;0.38;;;10.30;84.40;;;;;;5023844;28;20033;-80
2022/01/04 04:47:42;;;;;;;0.57;0.32;;;10.20;85.00;;;;;;5006543;28;20022;-80
2022/01/04 04:50:09;;;;;;;0.77;0.47;;;10.00;85.50;;;;;;5026222;28;20022;-81
2022/01/04 04:52:34;;;;;;;0.43;0.30;;;9.90;85.90;;;;;;5026832;28;20040;-78
2022/01/04 04:55:00;;;;;;;0.50;0.40;;;9.80;86.00;;;;;;5028222;28;20053;-79
2022/01/04 04:57:26;;;;;;;0.60;0.47;;;9.70;86.40;;;;;;5026664;28;20065;-80
2022/01/04 04:59:52;;;;;;;1.40;0.40;;;9.70;86.70;;;;;;5006073;28;20084;-80
2022/01/04 05:02:17;;;;;;;0.30;0.30;;;9.70;86.80;;;;;;5006500;28;20053;-80
2022/01/04 05:04:43;;;;;;;0.52;0.40;;;9.60;86.90;;;;;;5024015;28;20089;-79
2022/01/04 05:07:09;;;;;;;0.52;0.50;;;9.50;86.90;;;;;;5024142;28;20040;-79
2022/01/04 05:09:34;;;;;;;2.50;0.60;;;9.50;87.10;;;;;;5022573;28;20029;-80
2022/01/04 05:12:01;;;;;;;0.30;0.30;;;9.50;87.40;;;;;;5022162;28;20026;-79
2022/01/04 05:14:27;;;;;;;0.40;0.40;;;9.50;87.60;;;;;;5024107;28;20014;-79
2022/01/04 05:16:53;;;;;;;0.50;0.47;;;9.50;88.00;;;;;;5033526;28;20024;-79
2022/01/04 05:19:19;;;;;;;0.55;0.50;;;9.50;88.10;;;;;;5001889;28;20069;-79
2022/01/04 05:21:45;;;;;;;0.73;0.40;;;9.50;88.00;;;;;;5000175;28;20402;-79
2022/01/04 05:24:11;;;;;;;0.75;0.52;;;9.40;88.00;;;;;;5005235;28;20116;-79
2022/01/04 05:26:37;;;;;;;2.08;0.38;;;9.40;88.30;;;;;;5001086;28;20121;-79
2022/01/04 05:29:03;;;;;;;1.10;0.40;;;9.30;88.40;;;;;;4983456;28;20038;-78
2022/01/04 05:31:29;;;;;;;0.75;0.50;;;9.30;88.60;;;;;;5009203;28;20025;-78
2022/01/04 05:33:55;;;;;;;0.32;0.32;;;9.20;89.10;;;;;;5017900;28;20099;-78
2022/01/04 05:36:21;;;;;;;1.27;0.40;;;9.30;89.70;;;;;;5020798;28;20022;-79
2022/01/04 05:38:49;;;;;;;2.83;0.50;;;9.30;90.10;;;;;;5020231;28;20475;-79
2022/01/04 05:41:15;;;;;;;0.63;0.57;;;9.30;90.30;;;;;;5013432;28;20036;-79
2022/01/04 05:43:41;;;;;;;0.32;0.30;;;9.30;90.40;;;;;;5013882;28;20037;-80
2022/01/04 05:46:07;;;;;;;0.90;0.50;;;9.30;90.50;;;;;;5026195;28;20018;-79
2022/01/04 05:48:33;;;;;;;0.65;0.45;;;9.30;90.70;;;;;;5006162;28;20049;-78
2022/01/04 05:51:02;;;;;;;1.17;0.55;;;9.20;91.00;;;;;;5021928;28;20057;-79
2022/01/04 05:53:29;;;;;;;1.05;0.43;;;9.10;91.20;;;;;;5017923;28;20034;-78
2022/01/04 05:55:55;;;;;;;0.63;0.63;;;9.10;91.50;;;;;;5017964;28;20506;-78
2022/01/04 05:58:21;;;;;;;0.98;0.40;;;9.10;91.90;;;;;;5017232;28;20022;-78
2022/01/04 06:00:47;;;;;;;1.13;0.40;;;9.10;92.20;;;;;;5015437;28;20033;-78
2022/01/04 06:03:12;;;;;;;0.45;0.40;;;9.10;92.40;;;;;;5014906;28;20022;-79
2022/01/04 06:05:38;;;;;;;0.50;0.50;;;9.10;92.60;;;;;;5019242;28;20076;-79
2022/01/04 06:08:04;;;;;;;0.32;0.30;;;9.00;93.00;;;;;;5016692;28;20029;-77
2022/01/04 06:10:36;;;;;;;0.60;0.60;;;9.00;93.20;;;;;;5014751;28;20072;-78
2022/01/04 06:15:28;;;;;;;0.50;0.40;;;9.00;93.50;;;;;;5022519;28;20022;-79
2022/01/04 06:17:54;;;;;;;1.75;0.68;;;8.90;93.60;;;;;;4999977;28;20267;-77
2022/01/04 06:20:21;;;;;;;0.50;0.50;;;8.80;93.70;;;;;;5017282;28;20060;-79
2022/01/04 06:22:49;;;;;;;0.57;0.55;;;8.80;94.00;;;;;;5018786;28;20382;-78
2022/01/04 06:25:17;;;;;;;1.48;0.60;;;8.80;94.30;;;;;;5023533;28;20037;-79
2022/01/04 06:27:51;;;;;;;0.68;0.47;;;8.80;94.60;;;;;;5023569;28;20041;-82
2022/01/04 06:30:19;;;;;;;2.42;0.50;;;8.80;94.90;;;;;;5023522;28;20026;-82
2022/01/04 06:32:46;;;;;;;1.02;0.80;;;8.70;95.10;;;;;;5007844;28;20091;-82
2022/01/04 06:35:13;;;;;;;1.70;0.70;;;8.70;95.30;;;;;;5023726;28;20459;-81
2022/01/04 06:37:44;;;;;;;0.82;0.60;;;8.70;95.50;;;;;;5021900;28;20466;-81
2022/01/04 06:40:11;;;;;;;2.35;0.70;;;8.70;95.70;;;;;;5004669;28;20026;-81
2022/01/04 06:42:37;;;;;;;0.80;0.60;;;8.70;95.80;;;;;;5023016;28;20128;-80
2022/01/04 06:45:04;;;;;;;0.88;0.73;;;8.70;95.90;;;;;;5025450;28;20022;-81
2022/01/04 06:47:30;;;;;;;0.95;0.60;;;8.60;96.00;;;;;;5006937;28;20030;-80
2022/01/04 06:49:56;;;;;;;1.67;0.75;;;8.60;96.10;;;;;;5027384;28;20038;-82
2022/01/04 06:52:22;;;;;;;1.63;0.70;;;8.60;96.20;;;;;;5007232;28;20048;-82
2022/01/04 06:54:48;;;;;;;0.50;0.50;;;8.60;96.40;;;;;;5023598;28;20054;-82
2022/01/04 06:57:13;;;;;;;1.10;0.60;;;8.60;96.60;;;;;;5008045;28;20113;-82
2022/01/04 06:59:39;;;;;;;2.20;0.68;;;8.60;96.70;;;;;;5015975;28;20029;-82
2022/01/04 07:02:05;;;;;;;2.65;0.77;;;8.60;96.90;;;;;;5024328;28;20030;-80
2022/01/04 07:04:31;;;;;;;1.45;0.52;;;8.60;97.00;;;;;;5026404;28;20030;-82
2022/01/04 07:06:57;;;;;;;1.20;0.80;;;8.60;97.20;;;;;;5026166;28;20025;-80
2022/01/04 07:09:23;;;;;;;0.55;0.52;;;8.60;97.30;;;;;;5027439;28;20036;-82
2022/01/04 07:11:49;;;;;;;2.90;0.88;;;8.60;97.60;;;;;;5026350;28;20022;-78
2022/01/04 07:14:15;;;;;;;2.45;0.85;;;8.60;97.70;;;;;;5025124;28;20025;-79
2022/01/04 07:16:40;;;;;;;2.97;0.75;;;8.60;97.80;;;;;;5010150;28;20022;-79
2022/01/04 07:19:06;;;;;;;1.67;0.90;;;8.60;98.00;;;;;;5026552;28;20018;-81
2022/01/04 07:21:32;;;;;;;5.03;1.17;;;8.50;98.10;;;;;;5029259;28;20105;-78
2022/01/04 07:23:57;;;;;;;0.90;0.77;;;8.50;98.30;;;;;;5032384;28;20006;-83
2022/01/04 07:26:23;;;;;;;2.22;0.93;;;8.50;98.60;;;;;;5027900;28;20029;-81
2022/01/04 07:28:55;;;;;;;1.15;0.90;;;8.60;98.70;;;;;;5023699;28;20554;-79
2022/01/04 07:31:21;;;;;;;2.13;0.80;;;8.60;98.90;;;;;;5011413;28;20499;-79
2022/01/04 07:33:47;;;;;;;1.88;0.70;;;8.60;99.10;;;;;;5028717;28;20121;-80
2022/01/04 07:36:14;;;;;;;3.00;0.60;;;8.60;99.20;;;;;;5009564;28;20053;-79
2022/01/04 07:38:40;;;;;;;1.60;0.88;;;8.60;99.20;;;;;;5009260;28;20025;-80
2022/01/04 07:41:06;;;;;;;4.43;1.40;;;8.60;99.30;;;;;;5028236;28;20037;-81
2022/01/04 07:43:32;;;;;;;1.80;0.80;;;8.60;99.50;;;;;;5026500;28;20025;-82
2022/01/04 07:45:59;;;;;;;2.63;0.80;;;8.70;99.60;;;;;;5008396;28;20026;-79
2022/01/04 07:48:25;;;;;;;0.75;0.70;;;8.70;99.70;;;;;;5024657;28;20049;-82
2022/01/04 07:50:55;;;;;;;3.22;1.10;;;8.70;99.90;;;;;;5021220;28;20034;-80
2022/01/04 07:53:22;;;;;;;1.45;0.93;;;8.80;99.90;;;;;;5019386;28;20022;-81
2022/01/04 07:55:48;;;;;;;1.17;0.60;;;8.80;99.90;;;;;;5019284;28;20029;-82
2022/01/04 07:58:14;;;;;;;1.83;0.90;;;8.90;99.90;;;;;;5003029;28;20061;-82
2022/01/04 08:00:40;;;;;;;0.98;0.65;;;9.00;99.90;;;;;;5018569;28;20091;-85
2022/01/04 08:03:10;;;;;;;2.88;0.90;;;9.00;99.80;;;;;;5021569;28;20033;-81
2022/01/04 08:05:37;;;;;;;1.63;0.95;;;9.10;99.60;;;;;;5021078;28;20085;-83
2022/01/04 08:08:03;;;;;;;1.42;0.68;;;9.30;99.60;;;;;;5019225;28;20034;-82
2022/01/04 08:10:32;;;;;;;4.65;0.85;;;9.40;99.90;;;;;;5006545;28;20501;-83
2022/01/04 08:12:57;;;;;;;3.03;0.65;;;9.50;99.90;;;;;;5005197;28;20428;-82
2022/01/04 08:15:23;;;;;;;2.00;0.90;;;9.60;99.80;;;;;;5020890;28;20029;-85
2022/01/04 08:17:49;;;;;;;1.85;0.90;;;9.70;99.80;;;;;;5020311;28;20046;-82
2022/01/04 08:20:17;;;;;;;0.85;0.55;;;9.80;99.90;;;;;;5019438;28;20030;-82
2022/01/04 08:22:43;;;;;;;1.35;0.90;;;9.80;99.90;;;;;;5018457;28;20029;-84
2022/01/04 08:25:10;;;;;;;0.47;0.40;;;9.90;99.90;;;;;;5018660;28;20036;-83
2022/01/04 08:27:36;;;;;;;0.47;0.40;;;9.90;99.90;;;;;;5020799;28;20022;-82
2022/01/04 08:30:05;;;;;;;1.08;0.30;;;10.00;99.90;;;;;;5025732;28;20092;-81
2022/01/04 08:32:31;;;;;;;1.38;0.63;;;10.00;99.90;;;;;;5020849;28;20026;-81
2022/01/04 08:34:57;;;;;;;1.65;0.70;;;10.10;99.90;;;;;;5019312;28;20386;-81
2022/01/04 08:37:23;;;;;;;1.38;0.50;;;10.20;99.90;;;;;;5021715;28;20045;-81
2022/01/04 08:39:48;;;;;;;1.58;0.57;;;10.30;99.90;;;;;;5020195;28;20032;-81
2022/01/04 08:42:15;;;;;;;1.13;0.60;;;10.40;99.90;;;;;;5020188;28;20057;-79
2022/01/04 08:44:41;;;;;;;0.65;0.52;;;10.50;99.90;;;;;;5019496;28;20112;-80
2022/01/04 08:47:11;;;;;;;2.60;0.70;;;10.60;99.90;;;;;;5020745;28;20041;-80
2022/01/04 08:49:40;;;;;;;1.55;0.50;;;10.70;99.90;;;;;;5001338;28;20049;-80
2022/01/04 08:52:07;;;;;;;1.08;0.70;;;10.70;99.90;;;;;;5003644;28;20029;-81
2022/01/04 08:54:34;;;;;;;0.32;0.32;;;10.80;99.90;;;;;;5001885;28;20036;-81
2022/01/04 08:57:01;;;;;;;0.38;0.38;;;10.90;99.90;;;;;;5020072;28;20021;-82
2022/01/04 08:59:28;;;;;;;0.85;0.68;;;11.00;99.90;;;;;;5002295;28;20048;-82
2022/01/04 09:01:54;;;;;;;0.90;0.40;;;11.10;99.90;;;;;;5002223;28;20025;-84
2022/01/04 09:04:21;;;;;;;1.00;0.43;;;11.10;99.90;;;;;;5005909;28;20076;-82
2022/01/04 09:06:47;;;;;;;0.70;0.50;;;11.10;99.90;;;;;;5006903;28;20056;-84
2022/01/04 09:09:14;;;;;;;0.60;0.60;;;11.10;99.90;;;;;;5005165;28;20018;-83
2022/01/04 09:11:39;;;;;;;0.95;0.50;;;11.10;99.90;;;;;;5022018;28;20093;-81
2022/01/04 09:14:40;;;;;;;2.72;0.68;;;11.10;99.90;;;;;;5003454;28;20080;-80
2022/01/04 09:19:39;;;;;;;2.47;0.73;;;11.10;99.90;;;;;;5019816;28;20029;-83
2022/01/04 09:22:05;;;;;;;0.98;0.70;;;11.10;99.90;;;;;;5021621;28;20026;-82
2022/01/04 09:24:32;;;;;;;1.05;0.70;;;11.10;99.90;;;;;;5006558;28;20028;-83
2022/01/04 09:26:58;;;;;;;0.90;0.45;;;11.00;99.80;;;;;;5024079;28;20053;-82
2022/01/04 09:29:23;;;;;;;0.60;0.57;;;11.00;99.50;;;;;;5019195;28;20018;-81
2022/01/04 09:31:53;;;;;;;3.45;0.77;;;11.00;99.40;;;;;;5019387;28;20057;-80
2022/01/04 09:34:19;;;;;;;1.10;0.85;;;11.00;99.30;;;;;;5029443;28;20060;-82
2022/01/04 09:36:45;;;;;;;1.00;0.80;;;11.00;99.10;;;;;;5034286;28;20049;-81
2022/01/04 09:39:20;;;;;;;1.38;0.90;;;11.00;99.10;;;;;;5033127;28;20030;-82
2022/01/04 09:41:47;;;;;;;1.17;1.02;;;11.00;98.90;;;;;;5022333;28;20098;-81
2022/01/04 09:44:14;;;;;;;0.90;0.70;;;11.10;98.70;;;;;;5022294;28;20483;-82
2022/01/04 09:46:41;;;;;;;1.17;0.90;;;11.10;98.50;;;;;;5011300;28;20061;-81
2022/01/04 09:49:09;;;;;;;0.80;0.68;;;11.20;98.20;;;;;;5013176;28;20036;-82
2022/01/04 09:51:37;;;;;;;1.25;0.77;;;11.20;97.80;;;;;;5029548;28;20039;-81
2022/01/04 09:54:03;;;;;;;0.98;0.80;;;11.20;97.60;;;;;;5031785;28;20034;-82
2022/01/04 09:56:29;;;;;;;1.17;0.75;;;11.20;97.40;;;;;;5029443;28;20072;-82
2022/01/04 09:58:55;;;;;;;1.40;1.00;;;11.20;97.20;;;;;;5032470;28;20037;-82
2022/01/04 10:01:23;;;;;;;1.42;0.80;;;11.20;97.00;;;;;;5036147;28;20026;-83
2022/01/04 10:03:49;;;;;;;1.67;0.73;;;11.20;97.00;;;;;;5035845;28;20057;-83
2022/01/04 10:06:16;;;;;;;0.60;0.60;;;11.20;97.00;;;;;;5031267;28;20009;-81
2022/01/04 10:09:03;;;;;;;0.90;0.80;;;11.20;96.90;;;;;;5027155;28;20030;-81
2022/01/04 10:11:43;;;;;;;1.48;1.02;;;11.10;96.90;;;;;;5025718;28;20071;-80
2022/01/04 10:14:31;;;;;;;1.00;0.90;;;11.10;97.00;;;;;;5010627;28;20395;-80
2022/01/04 10:16:56;;;;;;;0.70;0.70;;;11.10;97.20;;;;;;5025625;28;20026;-81
2022/01/04 10:19:43;;;;;;;1.42;1.25;;;11.20;97.30;;;;;;5015390;28;20048;-80
2022/01/04 10:22:32;;;;;;;0.80;0.80;;;11.20;97.30;;;;;;5006154;28;20038;-81
2022/01/04 10:25:01;;;;;;;1.27;0.63;;;11.30;97.30;;;;;;5016235;28;20037;-82
2022/01/04 10:27:35;;;;;;;1.58;0.88;;;11.40;97.20;;;;;;5030959;28;20081;-84
2022/01/04 10:30:25;;;;;;;0.93;0.80;;;11.60;97.10;;;;;;5035370;28;20052;-84
2022/01/04 10:33:11;;;;;;;1.00;0.82;;;11.70;96.80;;;;;;5010692;28;20045;-83
2022/01/04 10:35:41;;;;;;;0.90;0.60;;;11.90;96.40;;;;;;5030465;28;20026;-84
2022/01/04 10:38:15;;;;;;;1.67;0.70;;;12.10;96.00;;;;;;5027569;28;20033;-84
2022/01/04 10:40:47;;;;;;;1.63;0.90;;;12.30;95.60;;;;;;5027140;28;20034;-84
2022/01/04 10:43:18;;;;;;;1.05;0.90;;;12.40;95.10;;;;;;5019723;28;20022;-83
2022/01/04 10:45:45;;;;;;;0.70;0.70;;;12.50;94.50;;;;;;5011499;28;20049;-84
2022/01/04 10:48:14;;;;;;;0.80;0.80;;;12.60;94.20;;;;;;5033305;28;20030;-83
2022/01/04 10:50:41;;;;;;;1.70;1.05;;;12.70;93.80;;;;;;5038396;28;20037;-81
2022/01/04 10:53:15;;;;;;;2.90;0.80;;;12.80;93.50;;;;;;5038845;28;20030;-82
2022/01/04 10:55:40;;;;;;;1.80;0.90;;;12.80;93.20;;;;;;5020612;28;20044;-82
2022/01/04 10:58:06;;;;;;;0.90;0.70;;;12.90;92.80;;;;;;5026296;28;20014;-81
2022/01/04 11:00:32;;;;;;;1.10;0.80;;;12.90;92.70;;;;;;4998187;28;20114;-83
2022/01/04 11:03:00;;;;;;;1.05;0.93;;;13.00;92.60;;;;;;5029735;28;20305;-83
2022/01/04 11:05:27;;;;;;;4.22;1.15;;;13.00;92.40;;;;;;5033356;28;20010;-83
2022/01/04 11:07:56;;;;;;;2.05;1.30;;;13.00;92.40;;;;;;5032602;28;20026;-84
2022/01/04 11:10:22;;;;;;;1.15;1.05;;;13.10;92.30;;;;;;5032976;28;20044;-83
2022/01/04 11:12:51;;;;;;;1.38;0.70;;;13.10;92.30;;;;;;5018746;28;20022;-82
2022/01/04 11:15:17;;;;;;;1.13;0.90;;;13.10;92.00;;;;;;5018930;28;20026;-81
2022/01/04 11:17:44;;;;;;;2.25;1.35;;;13.20;91.60;;;;;;5024904;28;20033;-82
2022/01/04 11:20:11;;;;;;;0.60;0.52;;;13.40;91.10;;;;;;5032606;28;20032;-83
2022/01/04 11:22:43;;;;;;;0.57;0.57;;;13.60;90.80;;;;;;5032761;28;20037;-83
2022/01/04 11:25:11;;;;;;;0.70;0.70;;;13.80;89.90;;;;;;5013701;28;20030;-84
2022/01/04 11:27:38;;;;;;;1.27;0.80;;;14.10;88.60;;;;;;5012139;28;20080;-83
2022/01/04 11:30:13;;;;;;;1.58;0.68;;;14.30;87.10;;;;;;5011639;28;20026;-83
2022/01/04 11:32:43;;;;;;;1.00;0.90;;;14.50;85.60;;;;;;5011253;28;20030;-82
2022/01/04 11:35:29;;;;;;;0.50;0.50;;;14.80;83.60;;;;;;5031662;28;20049;-83
2022/01/04 11:38:01;;;;;;;2.60;0.70;;;15.10;81.40;;;;;;5014157;28;20052;-82
2022/01/04 11:40:36;;;;;;;1.17;0.60;;;15.40;79.20;;;;;;5018163;28;20022;-85
2022/01/04 11:43:26;;;;;;;2.05;0.70;;;15.60;78.70;;;;;;5029568;28;20018;-84
2022/01/04 11:46:06;;;;;;;0.80;0.60;;;15.80;76.50;;;;;;5012888;28;20089;-82
2022/01/04 11:49:08;;;;;;;0.80;0.65;;;15.80;75.60;;;;;;5009538;28;20517;-84
2022/01/04 11:51:41;;;;;;;;;;;15.80;75.10;;;;;;4962530;28;20038;-84
2022/01/04 11:54:28;;;;;;;1.65;0.50;;;15.80;74.80;;;;;;5009889;28;20108;-83
2022/01/04 11:56:55;;;;;;;1.33;0.77;;;15.70;74.60;;;;;;5016254;28;20060;-83
2022/01/04 11:59:23;;;;;;;1.75;0.60;;;15.80;73.70;;;;;;5009918;28;20014;-84
2022/01/04 12:01:50;;;;;;;1.05;0.68;;;15.90;73.80;;;;;;5020519;28;20046;-84
2022/01/04 12:04:56;;;;;;;1.38;0.63;;;16.00;72.90;;;;;;5019043;28;20065;-84
2022/01/04 12:07:44;;;;;;;0.45;0.40;;;16.20;72.00;;;;;;4938868;29;20755;-84
2022/01/04 12:10:18;;;;;;;1.08;0.63;;;16.20;71.60;;;;;;4950975;29;20027;-84
2022/01/04 12:12:58;;;;;;;0.77;0.57;;;16.20;70.70;;;;;;4947297;29;20099;-83
2022/01/04 12:15:54;;;;;;;1.02;0.60;;;16.10;70.80;;;;;;4948604;29;20051;-84
2022/01/04 12:18:35;;;;;;;1.90;0.52;;;16.00;70.30;;;;;;4963352;28;20049;-84
2022/01/04 12:21:35;;;;;;;1.15;0.60;;;16.00;70.20;;;;;;4989062;28;20022;-83
2022/01/04 12:24:05;;;;;;;0.80;0.70;;;16.00;70.20;;;;;;5010966;28;20041;-82
2022/01/04 12:26:32;;;;;;;1.23;0.80;;;16.00;70.00;;;;;;5026572;28;20029;-84
2022/01/04 12:29:01;;;;;;;1.33;0.63;;;16.00;69.80;;;;;;5025033;28;20022;-84
2022/01/04 12:31:28;;;;;;;1.70;1.10;;;16.00;69.80;;;;;;5027028;28;20032;-84
2022/01/04 12:34:19;;;;;;;2.42;0.65;;;16.00;69.30;;;;;;5027499;28;20364;-84
2022/01/04 12:36:48;;;;;;;1.35;0.50;;;16.10;69.30;;;;;;5003540;28;20034;-83
2022/01/04 12:39:17;;;;;;;4.25;0.95;;;16.10;69.00;;;;;;5025296;28;20080;-85
2022/01/04 12:41:46;;;;;;;1.20;0.75;;;16.10;68.80;;;;;;5006183;28;20025;-83
2022/01/04 12:44:20;;;;;;;1.80;0.80;;;16.30;68.10;;;;;;5025632;28;20018;-84
2022/01/04 12:46:47;;;;;;;0.77;0.73;;;16.40;67.30;;;;;;5024133;28;20025;-84
2022/01/04 12:49:15;;;;;;;1.35;0.70;;;16.50;67.00;;;;;;5007623;28;20062;-85
2022/01/04 12:51:54;;;;;;;1.92;1.02;;;16.50;66.80;;;;;;5008986;28;20030;-85
2022/01/04 12:54:23;;;;;;;1.55;0.50;;;16.50;66.90;;;;;;5025607;28;20037;-85
2022/01/04 12:57:02;;;;;;;0.60;0.60;;;16.40;66.90;;;;;;5025911;28;20077;-85
2022/01/04 12:59:31;;;;;;;0.98;0.70;;;16.50;66.80;;;;;;5025900;28;20037;-85
2022/01/04 13:02:00;;;;;;;1.45;0.60;;;16.40;67.10;;;;;;5027509;28;20097;-82
2022/01/04 13:04:35;;;;;;;1.25;0.50;;;16.40;66.80;;;;;;5030375;28;20148;-85
2022/01/04 13:07:04;;;;;;;6.07;0.50;;;16.40;66.80;;;;;;5030183;28;20029;-85
2022/01/04 13:09:30;;;;;;;0.70;0.60;;;16.40;66.80;;;;;;5025029;28;20032;-83
2022/01/04 13:11:59;;;;;;;2.42;0.70;;;16.40;66.80;;;;;;5026632;28;20030;-84
2022/01/04 13:14:28;;;;;;;3.30;0.75;;;16.50;66.00;;;;;;5008815;28;20558;-83
2022/01/04 13:17:09;;;;;;;1.30;0.90;;;16.70;65.60;;;;;;5025829;28;20030;-86
2022/01/04 13:19:43;;;;;;;2.25;0.60;;;16.90;65.00;;;;;;5010255;28;20040;-83
2022/01/04 13:22:10;;;;;;;2.78;0.85;;;17.00;64.60;;;;;;5010360;28;20049;-86
2022/01/04 13:24:48;;;;;;;0.57;0.50;;;17.00;64.30;;;;;;5027000;28;20032;-84
2022/01/04 13:27:49;;;;;;;0.50;0.50;;;17.00;64.20;;;;;;5025488;28;20534;-84
2022/01/04 13:30:25;;;;;;;0.65;0.60;;;16.90;64.30;;;;;;4909529;29;20036;-84
2022/01/04 13:32:52;;;;;;;0.60;0.60;;;16.80;64.50;;;;;;4993560;28;20152;-84
2022/01/04 13:35:37;;;;;;;0.93;0.80;;;16.80;64.30;;;;;;5024530;28;20033;-83
2022/01/04 13:38:27;;;;;;;0.40;0.40;;;16.70;64.50;;;;;;5006005;28;20101;-84
2022/01/04 13:40:59;;;;;;;1.13;0.70;;;16.60;64.70;;;;;;4995666;28;20030;-82
2022/01/04 13:43:46;;;;;;;0.70;0.70;;;16.60;65.00;;;;;;5023286;28;20026;-82
2022/01/04 13:46:15;;;;;;;0.75;0.63;;;16.40;65.60;;;;;;5023260;28;20041;-84
2022/01/04 13:48:45;;;;;;;3.03;0.90;;;16.30;66.00;;;;;;4992460;28;20406;-83
2022/01/04 13:51:46;;;;;;;1.58;0.80;;;16.30;65.50;;;;;;4989540;28;20117;-84
2022/01/04 13:54:36;;;;;;;1.33;0.90;;;16.20;65.80;;;;;;4983233;28;20097;-84
2022/01/04 13:57:15;;;;;;;1.63;0.90;;;16.30;66.00;;;;;;4982079;28;20613;-83
2022/01/04 13:59:49;;;;;;;1.30;1.08;;;16.30;65.80;;;;;;4985551;28;20033;-83
2022/01/04 14:02:26;;;;;;;1.85;0.82;;;16.40;65.80;;;;;;4984098;28;20088;-84
2022/01/04 14:05:39;;;;;;;2.38;1.00;;;16.30;65.70;;;;;;5001954;28;20049;-84
2022/01/04 14:08:06;;;;;;;3.75;1.30;;;16.40;65.80;;;;;;5007290;28;20077;-81
2022/01/04 14:10:45;;;;;;;1.50;0.95;;;16.20;65.90;;;;;;4998646;28;20026;-83
2022/01/04 14:13:33;;;;;;;2.15;1.27;;;16.10;66.20;;;;;;5035016;28;20037;-84
2022/01/04 14:16:25;;;;;;;3.35;0.80;;;16.00;66.60;;;;;;5005560;28;20483;-84
2022/01/04 14:19:04;;;;;;;1.35;1.08;;;15.90;67.00;;;;;;5000437;28;20042;-83
2022/01/04 14:21:35;;;;;;;4.35;0.68;;;15.80;67.30;;;;;;4984956;28;20439;-82
2022/01/04 14:24:22;;;;;;;0.98;0.85;;;15.70;67.70;;;;;;5003317;28;20045;-83
2022/01/04 14:27:00;;;;;;;2.88;0.95;;;15.60;68.20;;;;;;4993163;28;20121;-84
2022/01/04 14:29:27;;;;;;;1.45;0.88;;;15.50;68.40;;;;;;4984291;28;20030;-84
2022/01/04 14:32:00;;;;;;;1.58;1.08;;;15.50;68.30;;;;;;5000915;28;20037;-83
2022/01/04 14:34:26;;;;;;;2.08;0.90;;;15.50;68.60;;;;;;4996490;28;20022;-82
2022/01/04 14:36:52;;;;;;;5.25;1.48;;;15.40;68.90;;;;;;4992114;28;20081;-80
2022/01/04 14:39:18;;;;;;;1.83;1.05;;;15.30;69.50;;;;;;5001813;28;20026;-82
2022/01/04 14:41:44;;;;;;;2.97;1.15;;;15.20;69.90;;;;;;4998700;28;20076;-83
2022/01/04 14:44:10;;;;;;;2.05;0.85;;;15.20;70.20;;;;;;5001384;28;20078;-84
2022/01/04 14:46:35;;;;;;;2.05;1.10;;;15.10;69.90;;;;;;5016674;28;20057;-83
2022/01/04 14:49:01;;;;;;;4.15;1.27;;;15.20;70.10;;;;;;5021656;28;20030;-82
2022/01/04 14:51:27;;;;;;;1.20;0.85;;;15.20;70.20;;;;;;5020949;28;20030;-81
2022/01/04 14:53:52;;;;;;;1.23;1.13;;;15.10;70.10;;;;;;5002476;28;20026;-81
2022/01/04 14:56:18;;;;;;;1.10;0.98;;;15.10;70.40;;;;;;5002541;28;20029;-83
2022/01/04 14:58:47;;;;;;;2.08;1.08;;;15.00;71.00;;;;;;5019487;28;20138;-82
2022/01/04 15:01:13;;;;;;;2.05;1.25;;;14.90;71.20;;;;;;5020164;28;20022;-79
2022/01/04 15:03:39;;;;;;;2.40;1.10;;;14.80;71.40;;;;;;5002931;28;20033;-81
2022/01/04 15:06:05;;;;;;;1.85;1.15;;;14.80;71.70;;;;;;5002834;28;20033;-80
2022/01/04 15:08:31;;;;;;;2.47;1.40;;;14.80;71.40;;;;;;5019331;28;20037;-81
2022/01/04 15:10:57;;;;;;;1.67;1.17;;;14.70;71.80;;;;;;5023068;28;20096;-81